createdAt,value
2022-12-31T00:00:47.044Z,20.62
2022-12-31T00:03:13.677Z,20.67
2022-12-31T00:05:40.258Z,20.67
2022-12-31T00:08:06.660Z,20.84
2022-12-31T00:10:41.339Z,20.78
2022-12-31T00:13:08.887Z,20.88
2022-12-31T00:15:35.327Z,20.70
2022-12-31T00:18:01.824Z,20.86
2022-12-31T00:20:28.511Z,20.70
2022-12-31T00:22:55.079Z,20.82
2022-12-31T00:25:21.474Z,20.74
2022-12-31T00:27:48.129Z,20.69
2022-12-31T00:30:14.580Z,20.66
2022-12-31T00:32:41.019Z,20.79
2022-12-31T00:35:07.617Z,20.69
2022-12-31T00:37:34.050Z,20.78
2022-12-31T00:40:00.509Z,20.61
2022-12-31T00:42:27.043Z,20.75
2022-12-31T00:44:53.517Z,20.82
2022-12-31T00:47:20.087Z,20.88
2022-12-31T00:49:46.510Z,20.74
2022-12-31T00:52:15.935Z,20.80
2022-12-31T00:54:42.374Z,20.67
2022-12-31T00:57:08.869Z,20.67
2022-12-31T00:59:35.345Z,20.65
2022-12-31T01:02:01.859Z,20.72
2022-12-31T01:04:28.409Z,20.69
2022-12-31T01:06:55.020Z,20.77
2022-12-31T01:09:21.737Z,20.66
2022-12-31T01:11:49.894Z,20.59
2022-12-31T01:14:16.815Z,20.66
2022-12-31T01:16:47.669Z,20.72
2022-12-31T01:19:18.264Z,20.85
2022-12-31T01:21:45.503Z,20.95
2022-12-31T01:24:12.091Z,20.79
2022-12-31T01:26:38.556Z,20.84
2022-12-31T01:29:05.478Z,20.64
2022-12-31T01:31:32.790Z,20.60
2022-12-31T01:33:59.479Z,20.55
2022-12-31T01:36:26.814Z,20.63
2022-12-31T01:38:53.887Z,20.72
2022-12-31T01:41:21.981Z,20.53
2022-12-31T01:43:49.235Z,20.53
2022-12-31T01:46:29.635Z,20.53
2022-12-31T01:48:57.017Z,20.61
2022-12-31T01:51:23.997Z,20.53
2022-12-31T01:53:50.390Z,20.60
2022-12-31T01:56:16.848Z,20.61
2022-12-31T01:58:44.011Z,20.69
2022-12-31T02:01:10.506Z,20.64
2022-12-31T02:03:36.931Z,20.67
2022-12-31T02:06:23.638Z,20.61
2022-12-31T02:08:50.191Z,20.59
2022-12-31T02:11:29.701Z,20.59
2022-12-31T02:13:58.761Z,20.67
2022-12-31T02:16:44.392Z,20.70
2022-12-31T02:19:26.705Z,20.60
2022-12-31T02:21:53.131Z,20.62
2022-12-31T02:24:25.459Z,20.55
2022-12-31T02:27:09.229Z,20.66
2022-12-31T02:29:47.903Z,20.68
2022-12-31T02:32:21.017Z,20.67
2022-12-31T02:34:50.543Z,20.56
2022-12-31T02:37:16.983Z,20.56
2022-12-31T02:39:43.384Z,20.45
2022-12-31T02:42:10.239Z,20.61
2022-12-31T02:44:37.174Z,20.49
2022-12-31T02:47:09.591Z,20.46
2022-12-31T02:49:57.187Z,20.49
2022-12-31T02:52:26.745Z,20.47
2022-12-31T02:55:03.310Z,20.52
2022-12-31T02:57:50.805Z,20.65
2022-12-31T03:00:36.080Z,20.87
2022-12-31T03:03:02.610Z,20.96
2022-12-31T03:05:29.643Z,21.33
2022-12-31T03:07:56.148Z,21.70
2022-12-31T03:10:23.705Z,21.95
2022-12-31T03:12:51.477Z,22.60
2022-12-31T03:15:44.353Z,22.84
2022-12-31T03:18:14.472Z,23.01
2022-12-31T03:21:00.436Z,23.32
2022-12-31T03:23:36.129Z,23.69
2022-12-31T03:26:02.731Z,24.03
2022-12-31T03:28:30.037Z,24.48
2022-12-31T03:31:00.344Z,24.66
2022-12-31T03:33:26.879Z,24.88
2022-12-31T03:35:53.324Z,25.01
2022-12-31T03:38:19.972Z,24.97
2022-12-31T03:40:47.275Z,25.31
2022-12-31T03:43:13.684Z,25.17
2022-12-31T03:45:40.175Z,25.05
2022-12-31T03:48:07.242Z,24.50
2022-12-31T03:50:33.850Z,23.93
2022-12-31T03:53:00.264Z,23.24
2022-12-31T03:55:26.669Z,22.23
2022-12-31T03:57:53.048Z,21.18
2022-12-31T04:00:19.964Z,20.28
2022-12-31T04:02:46.845Z,19.43
2022-12-31T04:05:13.315Z,18.59
2022-12-31T04:07:39.989Z,17.88
2022-12-31T04:10:07.313Z,17.23
2022-12-31T04:12:33.763Z,16.80
2022-12-31T04:15:00.263Z,16.41
2022-12-31T04:17:26.914Z,16.19
2022-12-31T04:19:53.354Z,16.08
2022-12-31T04:22:19.819Z,16.05
2022-12-31T04:24:46.332Z,16.05
2022-12-31T04:27:12.858Z,16.06
2022-12-31T04:29:39.493Z,16.08
2022-12-31T04:32:06.219Z,16.19
2022-12-31T04:34:32.763Z,16.20
2022-12-31T04:36:59.152Z,16.18
2022-12-31T04:39:25.644Z,16.20
2022-12-31T04:41:52.178Z,16.23
2022-12-31T04:44:18.761Z,16.27
2022-12-31T04:46:45.154Z,16.25
2022-12-31T04:49:11.591Z,16.21
2022-12-31T04:51:38.085Z,16.19
2022-12-31T04:54:04.554Z,16.20
2022-12-31T04:56:31.183Z,16.19
2022-12-31T04:58:57.610Z,16.19
2022-12-31T05:01:26.269Z,16.16
2022-12-31T05:03:52.823Z,16.15
2022-12-31T05:06:20.196Z,16.12
2022-12-31T05:08:46.814Z,16.18
2022-12-31T05:11:13.301Z,16.25
2022-12-31T05:13:39.841Z,16.18
2022-12-31T05:16:06.487Z,16.19
2022-12-31T05:18:33.066Z,16.21
2022-12-31T05:20:59.486Z,16.27
2022-12-31T05:23:26.038Z,16.26
2022-12-31T05:25:52.566Z,16.28
2022-12-31T05:28:18.985Z,16.24
2022-12-31T05:30:47.501Z,16.27
2022-12-31T05:33:13.911Z,16.26
2022-12-31T05:35:40.327Z,16.25
2022-12-31T05:38:06.711Z,16.26
2022-12-31T05:40:33.127Z,16.27
2022-12-31T05:42:59.543Z,16.29
2022-12-31T05:45:30.702Z,16.25
2022-12-31T05:47:57.474Z,16.25
2022-12-31T05:50:23.875Z,16.25
2022-12-31T05:52:50.297Z,16.20
2022-12-31T05:55:16.725Z,16.25
2022-12-31T05:57:43.125Z,16.33
2022-12-31T06:00:10.134Z,16.35
2022-12-31T06:02:36.587Z,16.42
2022-12-31T06:05:03.069Z,16.42
2022-12-31T06:07:30.175Z,16.33
2022-12-31T06:09:56.720Z,16.27
2022-12-31T06:12:23.141Z,16.26
2022-12-31T06:14:49.584Z,16.19
2022-12-31T06:17:16.025Z,16.24
2022-12-31T06:19:42.426Z,16.28
2022-12-31T06:22:08.820Z,16.29
2022-12-31T06:24:35.349Z,16.31
2022-12-31T06:27:01.884Z,16.33
2022-12-31T06:29:28.311Z,16.40
2022-12-31T06:31:54.860Z,16.34
2022-12-31T06:34:21.288Z,16.36
2022-12-31T06:36:47.713Z,16.36
2022-12-31T06:39:14.165Z,16.31
2022-12-31T06:41:40.684Z,16.31
2022-12-31T06:44:07.199Z,16.31
2022-12-31T06:46:33.663Z,16.27
2022-12-31T06:49:00.180Z,16.37
2022-12-31T06:51:26.619Z,16.37
2022-12-31T06:53:53.134Z,16.32
2022-12-31T06:56:20.919Z,16.25
2022-12-31T06:58:47.408Z,16.21
2022-12-31T07:01:30.998Z,16.15
2022-12-31T07:04:00.818Z,16.14
2022-12-31T07:06:39.335Z,16.14
2022-12-31T07:09:08.536Z,16.17
2022-12-31T07:11:50.685Z,16.22
2022-12-31T07:14:26.462Z,16.23
2022-12-31T07:17:04.974Z,16.25
2022-12-31T07:19:42.272Z,16.21
2022-12-31T07:22:12.139Z,16.28
2022-12-31T07:24:38.703Z,16.29
2022-12-31T07:27:05.096Z,16.22
2022-12-31T07:29:46.783Z,16.23
2022-12-31T07:32:33.308Z,16.25
2022-12-31T07:35:15.208Z,16.23
2022-12-31T07:37:41.629Z,16.22
2022-12-31T07:40:17.673Z,16.25
2022-12-31T07:43:02.964Z,16.25
2022-12-31T07:45:38.088Z,16.28
2022-12-31T07:48:04.713Z,16.25
2022-12-31T07:50:31.306Z,16.27
2022-12-31T07:52:58.015Z,16.30
2022-12-31T07:55:24.489Z,16.33
2022-12-31T07:58:13.988Z,16.34
2022-12-31T08:00:40.563Z,16.34
2022-12-31T08:03:15.735Z,16.34
2022-12-31T08:05:45.202Z,16.35
2022-12-31T08:08:17.092Z,16.35
2022-12-31T08:10:59.351Z,16.30
2022-12-31T08:13:25.819Z,16.26
2022-12-31T08:15:52.433Z,16.23
2022-12-31T08:18:18.976Z,16.26
2022-12-31T08:20:51.321Z,16.20
2022-12-31T08:23:36.721Z,16.26
2022-12-31T08:26:03.212Z,16.27
2022-12-31T08:28:35.717Z,16.26
2022-12-31T08:31:04.378Z,16.27
2022-12-31T08:33:30.815Z,16.32
2022-12-31T08:36:03.660Z,16.34
2022-12-31T08:38:33.223Z,16.30
2022-12-31T08:41:03.135Z,16.33
2022-12-31T08:44:05.367Z,16.32
2022-12-31T08:46:33.627Z,16.36
2022-12-31T08:49:00.185Z,16.40
2022-12-31T08:51:26.784Z,16.31
2022-12-31T08:53:53.497Z,16.28
2022-12-31T08:56:25.794Z,16.34
2022-12-31T08:59:15.511Z,16.38
2022-12-31T09:02:01.218Z,16.54
2022-12-31T09:04:30.892Z,16.76
2022-12-31T09:06:59.174Z,17.17
2022-12-31T09:09:28.755Z,17.66
2022-12-31T09:12:12.628Z,18.18
2022-12-31T09:14:48.999Z,18.71
2022-12-31T09:17:15.529Z,19.39
2022-12-31T09:19:41.918Z,19.90
2022-12-31T09:22:09.929Z,20.33
2022-12-31T09:24:36.552Z,20.34
2022-12-31T09:27:29.099Z,20.81
2022-12-31T09:30:01.685Z,20.68
2022-12-31T09:32:35.568Z,20.42
2022-12-31T09:35:20.485Z,20.08
2022-12-31T09:37:47.896Z,19.76
2022-12-31T09:40:23.456Z,19.51
2022-12-31T09:42:57.900Z,19.58
2022-12-31T09:45:43.397Z,19.58
2022-12-31T09:48:09.807Z,19.74
2022-12-31T09:50:39.351Z,19.75
2022-12-31T09:53:05.756Z,19.87
2022-12-31T09:55:44.497Z,19.85
2022-12-31T09:58:14.073Z,19.95
2022-12-31T10:00:44.629Z,20.02
2022-12-31T10:03:24.131Z,20.09
2022-12-31T10:05:53.011Z,20.17
2022-12-31T10:08:46.196Z,20.19
2022-12-31T10:11:12.618Z,20.12
2022-12-31T10:13:44.155Z,20.19
2022-12-31T10:16:16.183Z,20.29
2022-12-31T10:18:50.178Z,20.25
2022-12-31T10:21:35.304Z,20.25
2022-12-31T10:24:17.155Z,20.28
2022-12-31T10:27:14.278Z,20.47
2022-12-31T10:29:43.061Z,20.43
2022-12-31T10:32:15.533Z,20.48
2022-12-31T10:34:51.083Z,20.40
2022-12-31T10:37:18.181Z,20.58
2022-12-31T10:40:00.776Z,20.50
2022-12-31T10:42:36.754Z,20.59
2022-12-31T10:45:26.584Z,20.43
2022-12-31T10:47:52.978Z,20.49
2022-12-31T10:50:22.416Z,20.51
2022-12-31T10:52:58.074Z,20.57
2022-12-31T10:55:25.468Z,20.52
2022-12-31T10:58:03.854Z,20.52
2022-12-31T11:00:54.106Z,20.51
2022-12-31T11:03:29.065Z,20.61
2022-12-31T11:06:15.155Z,20.64
2022-12-31T11:08:57.968Z,20.71
2022-12-31T11:11:27.409Z,20.79
2022-12-31T11:14:06.301Z,20.72
2022-12-31T11:16:32.724Z,20.76
2022-12-31T11:19:06.318Z,20.75
2022-12-31T11:21:56.316Z,20.75
2022-12-31T11:24:28.960Z,20.67
2022-12-31T11:27:08.398Z,20.74
2022-12-31T11:29:41.179Z,20.73
2022-12-31T11:32:07.787Z,20.96
2022-12-31T11:34:40.269Z,20.83
2022-12-31T11:37:25.436Z,20.89
2022-12-31T11:40:01.040Z,20.83
2022-12-31T11:42:42.930Z,20.88
2022-12-31T11:45:12.184Z,20.89
2022-12-31T11:48:28.710Z,21.00
2022-12-31T11:50:56.102Z,20.92
2022-12-31T11:53:39.619Z,21.05
2022-12-31T11:56:06.029Z,21.17
2022-12-31T11:58:32.507Z,21.04
2022-12-31T12:01:12.682Z,21.07
2022-12-31T12:03:43.266Z,21.17
2022-12-31T12:06:13.276Z,21.16
2022-12-31T12:08:39.761Z,21.08
2022-12-31T12:11:25.356Z,21.17
2022-12-31T12:13:51.919Z,21.16
2022-12-31T12:16:21.847Z,21.17
2022-12-31T12:18:51.969Z,21.11
2022-12-31T12:21:21.894Z,21.29
2022-12-31T12:23:55.647Z,21.20
2022-12-31T12:26:38.365Z,21.32
2022-12-31T12:29:11.744Z,21.29
2022-12-31T12:31:38.522Z,21.54
2022-12-31T12:34:05.384Z,21.62
2022-12-31T12:36:32.010Z,21.70
2022-12-31T12:39:02.368Z,21.62
2022-12-31T12:41:28.777Z,21.72
2022-12-31T12:44:01.915Z,21.60
2022-12-31T12:46:32.406Z,21.75
2022-12-31T12:48:58.858Z,21.65
2022-12-31T12:51:28.015Z,21.75
2022-12-31T12:54:04.536Z,21.76
2022-12-31T12:56:35.209Z,21.86
2022-12-31T12:59:17.368Z,21.73
2022-12-31T13:01:52.871Z,21.77
2022-12-31T13:04:42.546Z,21.76
2022-12-31T13:07:27.821Z,21.87
2022-12-31T13:10:12.687Z,21.88
2022-12-31T13:15:42.591Z,21.95
2022-12-31T13:18:18.260Z,22.00
2022-12-31T13:20:47.455Z,21.97
2022-12-31T13:23:19.620Z,22.11
2022-12-31T13:25:52.151Z,22.16
2022-12-31T13:28:20.978Z,22.13
2022-12-31T13:30:50.066Z,22.12
2022-12-31T13:33:20.639Z,22.08
2022-12-31T13:35:51.857Z,22.21
2022-12-31T13:38:19.532Z,22.13
2022-12-31T13:41:00.739Z,22.16
2022-12-31T13:43:30.224Z,22.15
2022-12-31T13:46:23.149Z,22.20
2022-12-31T13:48:53.298Z,22.20
2022-12-31T13:51:33.384Z,22.31
2022-12-31T13:54:06.988Z,22.27
2022-12-31T13:56:37.476Z,22.39
2022-12-31T13:59:22.853Z,22.41
2022-12-31T14:01:53.430Z,22.43
2022-12-31T14:04:37.132Z,22.33
2022-12-31T14:07:10.753Z,22.42
2022-12-31T14:09:37.832Z,22.35
2022-12-31T14:12:20.201Z,22.52
2022-12-31T14:14:53.565Z,22.43
2022-12-31T14:17:20.005Z,22.60
2022-12-31T14:20:15.944Z,22.53
2022-12-31T14:22:45.828Z,22.63
2022-12-31T14:25:17.531Z,22.48
2022-12-31T14:27:43.942Z,22.51
2022-12-31T14:30:19.912Z,22.60
2022-12-31T14:32:46.393Z,22.71
2022-12-31T14:35:22.223Z,22.71
2022-12-31T14:37:55.703Z,22.69
2022-12-31T14:40:41.816Z,22.65
2022-12-31T14:43:14.175Z,22.65
2022-12-31T14:46:00.860Z,22.68
2022-12-31T14:48:29.549Z,22.81
2022-12-31T14:50:55.990Z,22.92
2022-12-31T14:53:23.503Z,22.82
2022-12-31T14:55:59.783Z,22.68
2022-12-31T14:58:30.754Z,22.87
2022-12-31T15:00:58.465Z,22.88
2022-12-31T15:03:36.331Z,22.80
2022-12-31T15:06:05.505Z,22.91
2022-12-31T15:08:35.841Z,23.05
2022-12-31T15:11:05.215Z,23.15
2022-12-31T15:13:52.242Z,22.99
2022-12-31T15:16:30.913Z,23.14
2022-12-31T15:18:57.332Z,23.00
2022-12-31T15:21:23.663Z,23.00
2022-12-31T15:23:50.085Z,22.97
2022-12-31T15:26:21.177Z,23.01
2022-12-31T15:28:54.059Z,22.96
2022-12-31T15:31:20.699Z,22.97
2022-12-31T15:33:57.566Z,22.97
2022-12-31T15:36:24.989Z,23.08
2022-12-31T15:38:51.470Z,23.03
2022-12-31T15:41:37.479Z,23.24
2022-12-31T15:44:08.733Z,23.23
2022-12-31T15:46:37.355Z,23.32
2022-12-31T15:49:24.086Z,23.15
2022-12-31T15:51:51.867Z,23.23
2022-12-31T15:54:25.912Z,23.16
2022-12-31T15:56:52.442Z,23.31
2022-12-31T15:59:18.879Z,23.17
2022-12-31T16:01:45.435Z,23.31
2022-12-31T16:04:33.491Z,23.27
2022-12-31T16:07:03.860Z,23.28
2022-12-31T16:09:30.827Z,23.12
2022-12-31T16:11:57.470Z,23.17
2022-12-31T16:14:25.290Z,23.30
2022-12-31T16:16:55.506Z,23.40
2022-12-31T16:19:54.477Z,23.34
2022-12-31T16:22:27.498Z,23.31
2022-12-31T16:25:28.891Z,23.24
2022-12-31T16:27:41.381Z,23.26
2022-12-31T16:30:15.841Z,23.28
2022-12-31T16:32:42.301Z,23.27
2022-12-31T16:35:25.266Z,23.27
2022-12-31T16:38:10.586Z,23.33
2022-12-31T16:40:37.025Z,23.36
2022-12-31T16:43:03.727Z,23.29
2022-12-31T16:45:33.892Z,23.38
2022-12-31T16:48:13.012Z,23.33
2022-12-31T16:50:46.490Z,23.35
2022-12-31T16:53:13.121Z,23.37
2022-12-31T16:55:39.512Z,23.46
2022-12-31T16:58:12.422Z,23.37
2022-12-31T17:00:38.866Z,23.55
2022-12-31T17:03:15.585Z,23.50
2022-12-31T17:05:55.354Z,23.60
2022-12-31T17:08:23.740Z,23.54
2022-12-31T17:10:50.362Z,23.71
2022-12-31T17:13:29.367Z,23.61
2022-12-31T17:15:56.620Z,23.75
2022-12-31T17:18:24.200Z,23.55
2022-12-31T17:20:51.452Z,23.70
2022-12-31T17:23:21.147Z,23.64
2022-12-31T17:25:47.533Z,23.69
2022-12-31T17:28:23.843Z,23.66
2022-12-31T17:30:50.401Z,23.91
2022-12-31T17:33:19.915Z,23.77
2022-12-31T17:35:46.305Z,23.87
2022-12-31T17:38:22.087Z,23.78
2022-12-31T17:40:52.958Z,23.89
2022-12-31T17:43:20.316Z,23.69
2022-12-31T17:45:46.911Z,23.77
2022-12-31T17:48:14.175Z,23.64
2022-12-31T17:50:50.582Z,23.75
2022-12-31T17:53:17.108Z,23.60
2022-12-31T17:55:45.434Z,23.76
2022-12-31T17:58:29.837Z,23.68
2022-12-31T18:00:56.753Z,23.81
2022-12-31T18:03:23.184Z,23.67
2022-12-31T18:05:49.711Z,23.77
2022-12-31T18:08:16.150Z,23.68
2022-12-31T18:10:42.885Z,23.78
2022-12-31T18:13:35.887Z,23.68
2022-12-31T18:16:02.378Z,23.85
2022-12-31T18:18:29.729Z,23.66
2022-12-31T18:21:06.675Z,23.68
2022-12-31T18:23:43.275Z,23.59
2022-12-31T18:26:12.038Z,23.73
2022-12-31T18:28:38.453Z,23.56
2022-12-31T18:31:04.856Z,23.64
2022-12-31T18:33:31.362Z,23.60
2022-12-31T18:36:08.822Z,23.72
2022-12-31T18:38:36.300Z,23.57
2022-12-31T18:41:02.711Z,23.69
2022-12-31T18:43:29.193Z,23.59
2022-12-31T18:45:55.762Z,23.70
2022-12-31T18:48:22.227Z,23.62
2022-12-31T18:50:48.720Z,23.67
2022-12-31T18:53:16.368Z,23.71
2022-12-31T18:55:51.847Z,23.84
2022-12-31T18:58:18.400Z,23.65
2022-12-31T19:00:44.971Z,23.75
2022-12-31T19:03:15.218Z,23.68
2022-12-31T19:05:41.810Z,23.85
2022-12-31T19:08:08.328Z,23.71
2022-12-31T19:10:34.842Z,23.78
2022-12-31T19:13:01.260Z,23.70
2022-12-31T19:15:27.652Z,23.92
2022-12-31T19:17:54.094Z,23.75
2022-12-31T19:20:20.536Z,23.75
2022-12-31T19:22:47.479Z,23.66
2022-12-31T19:25:17.596Z,23.72
2022-12-31T19:27:44.000Z,23.64
2022-12-31T19:30:29.689Z,23.66
2022-12-31T19:32:56.185Z,23.67
2022-12-31T19:35:22.658Z,23.77
2022-12-31T19:37:49.671Z,23.75
2022-12-31T19:40:16.933Z,23.81
2022-12-31T19:42:43.819Z,23.74
2022-12-31T19:45:12.922Z,23.79
2022-12-31T19:47:39.342Z,23.72
2022-12-31T19:50:05.938Z,23.83
2022-12-31T19:52:32.359Z,23.69
2022-12-31T19:54:58.772Z,23.88
2022-12-31T19:57:25.265Z,23.80
2022-12-31T19:59:51.662Z,23.85
2022-12-31T20:02:18.253Z,23.73
2022-12-31T20:04:44.772Z,23.78
2022-12-31T20:07:11.325Z,23.78
2022-12-31T20:09:37.749Z,23.74
2022-12-31T20:12:04.255Z,23.75
2022-12-31T20:14:30.710Z,23.79
2022-12-31T20:16:57.177Z,23.76
2022-12-31T20:19:23.612Z,23.77
2022-12-31T20:21:50.029Z,23.87
2022-12-31T20:24:16.537Z,23.87
2022-12-31T20:26:42.933Z,23.79
2022-12-31T20:29:09.344Z,23.75
2022-12-31T20:31:35.790Z,23.77
2022-12-31T20:34:02.241Z,23.72
2022-12-31T20:36:28.669Z,23.78
2022-12-31T20:38:55.104Z,23.87
2022-12-31T20:41:21.930Z,23.94
2022-12-31T20:43:48.480Z,23.90
2022-12-31T20:46:19.537Z,23.95
2022-12-31T20:48:46.382Z,23.84
2022-12-31T20:51:13.512Z,23.80
2022-12-31T20:53:39.931Z,23.81
2022-12-31T20:56:06.749Z,23.86
2022-12-31T20:58:33.290Z,23.78
2022-12-31T21:00:59.842Z,23.96
2022-12-31T21:04:02.843Z,23.77
2022-12-31T21:06:12.932Z,23.87
2022-12-31T21:08:39.407Z,23.87
2022-12-31T21:11:28.772Z,23.99
2022-12-31T21:13:55.647Z,23.90
2022-12-31T21:16:22.193Z,23.90
2022-12-31T21:18:48.644Z,23.86
2022-12-31T21:21:15.104Z,23.88
2022-12-31T21:23:41.581Z,23.78
2022-12-31T21:26:08.417Z,23.91
2022-12-31T21:28:37.373Z,23.86
2022-12-31T21:31:04.695Z,23.97
2022-12-31T21:33:34.079Z,23.86
2022-12-31T21:36:04.572Z,23.90
2022-12-31T21:38:31.482Z,23.74
2022-12-31T21:41:01.712Z,23.83
2022-12-31T21:43:28.137Z,23.91
2022-12-31T21:46:01.680Z,23.86
2022-12-31T21:48:28.143Z,23.84
2022-12-31T21:50:58.150Z,23.80
2022-12-31T21:53:28.998Z,23.69
2022-12-31T21:56:09.612Z,23.85
2022-12-31T21:58:38.884Z,23.74
2022-12-31T22:01:24.396Z,23.94
2022-12-31T22:03:50.989Z,23.83
2022-12-31T22:06:23.732Z,23.93
2022-12-31T22:08:54.401Z,23.84
2022-12-31T22:11:21.407Z,23.90
2022-12-31T22:13:47.980Z,23.79
2022-12-31T22:16:14.559Z,23.80
2022-12-31T22:18:42.179Z,23.85
2022-12-31T22:21:15.567Z,23.73
2022-12-31T22:23:44.560Z,23.78
2022-12-31T22:26:12.213Z,23.83
2022-12-31T22:28:40.003Z,23.76
2022-12-31T22:31:07.556Z,23.82
2022-12-31T22:33:34.020Z,23.65
2022-12-31T22:36:07.412Z,23.66
2022-12-31T22:38:33.898Z,23.57
2022-12-31T22:41:00.885Z,23.68
2022-12-31T22:43:27.337Z,23.61
2022-12-31T22:45:53.813Z,23.75
2022-12-31T22:48:20.249Z,23.61
2022-12-31T22:50:53.797Z,23.70
2022-12-31T22:53:20.293Z,23.62
2022-12-31T22:55:46.728Z,23.68
2022-12-31T22:58:13.126Z,23.67
2022-12-31T23:00:42.234Z,23.69
2022-12-31T23:03:08.680Z,23.75
2022-12-31T23:05:35.253Z,23.84
2022-12-31T23:08:04.731Z,23.65
2022-12-31T23:10:53.452Z,23.79
2022-12-31T23:13:38.461Z,23.65
2022-12-31T23:16:23.484Z,23.77
2022-12-31T23:19:08.675Z,23.58
2022-12-31T23:21:53.938Z,23.52
2022-12-31T23:24:26.099Z,23.66
2022-12-31T23:26:52.880Z,23.63
2022-12-31T23:29:19.360Z,23.77
2022-12-31T23:31:45.815Z,23.54
2022-12-31T23:34:12.289Z,23.67
2022-12-31T23:36:38.756Z,23.55
2022-12-31T23:39:05.220Z,23.62
2022-12-31T23:41:31.666Z,23.59
2022-12-31T23:43:58.135Z,23.82
2022-12-31T23:46:24.598Z,23.63
2022-12-31T23:48:51.292Z,23.73
2022-12-31T23:51:17.738Z,23.67
2022-12-31T23:53:44.153Z,23.70
2022-12-31T23:56:19.164Z,23.74
2022-12-31T23:58:49.372Z,23.80
